Time;durP1;ratioP1;P1;durP2;ratioP2;P2;SDS_P1;SDS_P2;PMS_P1;PMS_P2;Temp;Humidity;BMP_temperature;BMP_pressure;BME280_temperature;BME280_humidity;BME280_pressure;Samples;Min_cycle;Max_cycle;Signal;HPM_P1;HPM_P2
2023/09/22 00:00:16;;;;;;;10.10;5.40;;;;;;;12.41;100.00;99777.53;5032257;28;20450;-82
2023/09/22 00:02:45;;;;;;;9.10;5.38;;;;;;;12.33;100.00;99779.59;5031927;28;20449;-82
2023/09/22 00:05:12;;;;;;;8.32;4.32;;;;;;;12.37;100.00;99786.38;5032403;28;20049;-82
2023/09/22 00:07:37;;;;;;;7.53;4.43;;;;;;;12.30;100.00;99783.19;5032513;28;20060;-82
2023/09/22 00:10:07;;;;;;;5.93;3.80;;;;;;;12.32;100.00;99778.75;5031543;28;20057;-83
2023/09/22 00:12:33;;;;;;;6.40;3.60;;;;;;;12.27;100.00;99777.25;5035623;28;20036;-82
2023/09/22 00:14:59;;;;;;;7.07;3.90;;;;;;;12.28;100.00;99792.78;5036127;28;20021;-82
2023/09/22 00:17:25;;;;;;;9.23;4.43;;;;;;;12.20;100.00;99785.28;5035251;28;20312;-82
2023/09/22 00:19:51;;;;;;;7.35;4.13;;;;;;;12.16;100.00;99781.09;5036294;28;20466;-82
2023/09/22 00:22:19;;;;;;;5.13;3.50;;;;;;;12.10;100.00;99781.34;5036022;28;20026;-82
2023/09/22 00:24:51;;;;;;;4.55;3.20;;;;;;;12.11;100.00;99774.38;5054050;28;20044;-82
2023/09/22 00:27:17;;;;;;;3.63;2.63;;;;;;;12.14;100.00;99780.31;5055836;28;20017;-82
2023/09/22 00:29:42;;;;;;;4.13;2.70;;;;;;;12.01;100.00;99759.13;5050516;28;20048;-83
2023/09/22 00:32:07;;;;;;;3.63;2.60;;;;;;;12.06;100.00;99774.56;5055328;28;20029;-83
2023/09/22 00:34:33;;;;;;;5.43;3.10;;;;;;;12.08;100.00;99783.16;5056299;28;20096;-83
2023/09/22 00:36:59;;;;;;;5.83;3.27;;;;;;;12.05;100.00;99789.31;5056131;28;20377;-82
2023/09/22 00:39:24;;;;;;;5.33;3.10;;;;;;;12.02;100.00;99794.63;5054689;28;20025;-82
2023/09/22 00:41:53;;;;;;;4.80;3.13;;;;;;;11.97;100.00;99790.47;5055773;28;20051;-82
2023/09/22 00:44:18;;;;;;;5.95;3.35;;;;;;;11.95;100.00;99802.69;5054974;28;20021;-82
2023/09/22 00:46:44;;;;;;;5.10;3.33;;;;;;;11.87;100.00;99796.03;5055753;28;20381;-82
2023/09/22 00:49:09;;;;;;;5.87;3.90;;;;;;;11.85;100.00;99792.63;5055413;28;20028;-82
2023/09/22 00:51:35;;;;;;;7.03;3.93;;;;;;;11.82;100.00;99794.50;5054635;28;20025;-82
2023/09/22 00:54:01;;;;;;;7.13;4.10;;;;;;;11.79;100.00;99784.22;5055601;28;20096;-82
2023/09/22 00:56:28;;;;;;;5.55;3.35;;;;;;;11.77;100.00;99778.22;5055088;28;20079;-82
2023/09/22 00:58:53;;;;;;;5.90;3.40;;;;;;;11.77;100.00;99771.28;5054658;28;20114;-82
2023/09/22 01:01:21;;;;;;;4.83;2.80;;;;;;;11.78;100.00;99777.31;5055480;28;20051;-82
2023/09/22 01:03:53;;;;;;;5.20;3.13;;;;;;;11.80;100.00;99780.72;5055492;28;20116;-82
2023/09/22 01:06:18;;;;;;;3.72;2.70;;;;;;;11.79;100.00;99774.69;5054491;28;20530;-82
2023/09/22 01:08:44;;;;;;;5.90;3.47;;;;;;;11.76;100.00;99781.75;5055474;28;20155;-82
2023/09/22 01:11:09;;;;;;;4.03;2.67;;;;;;;11.79;100.00;99792.88;5055296;28;20032;-82
2023/09/22 01:13:35;;;;;;;5.00;3.00;;;;;;;11.75;100.00;99783.50;5054688;28;20032;-82
2023/09/22 01:16:06;;;;;;;3.20;2.20;;;;;;;11.74;100.00;99780.06;5055240;28;20491;-82
2023/09/22 01:18:31;;;;;;;4.53;2.63;;;;;;;11.67;100.00;99764.75;5055239;28;20029;-82
2023/09/22 01:20:59;;;;;;;3.17;2.23;;;;;;;11.74;100.00;99785.25;5054193;28;20021;-82
2023/09/22 01:23:25;;;;;;;2.33;1.85;;;;;;;11.76;100.00;99785.19;5053686;28;20489;-82
2023/09/22 01:25:50;;;;;;;2.30;2.10;;;;;;;11.75;100.00;99783.50;5054623;28;20028;-82
2023/09/22 01:28:15;;;;;;;2.43;2.00;;;;;;;11.77;100.00;99784.28;5054315;28;20024;-82
2023/09/22 01:30:42;;;;;;;2.23;1.93;;;;;;;11.70;100.00;99770.66;5055025;28;20420;-82
2023/09/22 01:33:08;;;;;;;2.55;2.00;;;;;;;11.67;100.00;99768.19;5054649;28;20080;-82
2023/09/22 01:35:35;;;;;;;2.63;2.10;;;;;;;11.69;100.00;99771.56;5054121;28;20053;-82
2023/09/22 01:38:24;;;;;;;2.70;1.92;;;;;;;11.70;100.00;99764.63;5054882;28;20025;-82
2023/09/22 01:40:50;;;;;;;3.38;2.00;;;;;;;11.70;100.00;99769.84;5054055;28;20406;-81
2023/09/22 01:43:17;;;;;;;3.00;2.10;;;;;;;11.66;100.00;99769.06;5054520;28;20017;-82
2023/09/22 01:45:43;;;;;;;3.38;2.22;;;;;;;11.65;100.00;99769.16;5054665;28;20036;-82
2023/09/22 01:48:10;;;;;;;3.15;2.20;;;;;;;11.64;100.00;99765.72;5053385;28;20036;-81
2023/09/22 01:50:37;;;;;;;3.00;2.10;;;;;;;11.63;100.00;99769.22;5054233;28;20462;-82
2023/09/22 01:53:04;;;;;;;3.38;2.15;;;;;;;11.59;100.00;99772.81;5054223;28;20488;-82
2023/09/22 01:55:29;;;;;;;2.55;2.10;;;;;;;11.63;100.00;99781.34;5053917;28;20056;-82
2023/09/22 01:57:54;;;;;;;2.60;2.07;;;;;;;11.63;100.00;99786.53;5053312;28;20546;-82
2023/09/22 02:00:20;;;;;;;3.03;2.17;;;;;;;11.56;100.00;99775.53;5054208;28;20108;-82
2023/09/22 02:02:46;;;;;;;3.27;2.13;;;;;;;11.60;100.00;99779.72;5053473;28;20025;-82
2023/09/22 02:05:12;;;;;;;2.43;1.90;;;;;;;11.59;100.00;99781.47;5054150;28;20067;-82
2023/09/22 02:07:38;;;;;;;2.60;2.00;;;;;;;11.59;100.00;99783.22;5054446;28;20051;-82
2023/09/22 02:10:05;;;;;;;2.33;2.00;;;;;;;11.59;100.00;99783.22;5053145;28;20032;-82
2023/09/22 02:12:31;;;;;;;2.67;1.90;;;;;;;11.62;100.00;99782.25;5054097;28;20473;-82
2023/09/22 02:14:57;;;;;;;3.27;1.93;;;;;;;11.61;100.00;99772.75;5054395;28;20036;-82
2023/09/22 02:17:22;;;;;;;2.35;1.90;;;;;;;11.63;100.00;99782.22;5053018;28;20040;-82
2023/09/22 02:19:48;;;;;;;3.63;2.10;;;;;;;11.57;100.00;99772.03;5054414;28;20033;-82
2023/09/22 02:22:13;;;;;;;2.60;1.97;;;;;;;11.61;100.00;99777.94;5055120;28;20112;-81
2023/09/22 02:24:39;;;;;;;2.87;2.00;;;;;;;11.57;100.00;99775.47;5052955;28;20131;-82
2023/09/22 02:27:04;;;;;;;2.50;2.07;;;;;;;11.59;100.00;99784.06;5053470;28;20025;-82
2023/09/22 02:29:30;;;;;;;1.87;1.60;;;;;;;11.61;100.00;99788.34;5053815;28;20025;-82
2023/09/22 02:31:55;;;;;;;2.87;1.90;;;;;;;11.52;100.00;99782.59;5052578;28;20025;-82
2023/09/22 02:34:20;;;;;;;2.77;2.20;;;;;;;11.60;100.00;99784.91;5053353;28;20029;-82
2023/09/22 02:36:47;;;;;;;3.07;1.97;;;;;;;11.61;100.00;99780.53;5053160;28;20029;-81
2023/09/22 02:39:12;;;;;;;1.80;1.70;;;;;;;11.62;100.00;99779.66;5052841;28;20488;-82
2023/09/22 02:41:37;;;;;;;1.87;1.73;;;;;;;11.59;100.00;99775.41;5053407;28;20033;-82
2023/09/22 02:44:06;;;;;;;4.13;2.40;;;;;;;11.60;100.00;99766.72;5052983;28;20032;-82
2023/09/22 02:46:32;;;;;;;2.88;2.00;;;;;;;11.58;100.00;99771.13;5070642;28;20040;-82
2023/09/22 02:48:57;;;;;;;5.40;2.70;;;;;;;11.68;100.00;99777.66;5073173;28;20032;-82
2023/09/22 02:51:22;;;;;;;3.17;2.43;;;;;;;11.68;100.00;99774.25;5072196;28;20034;-82
2023/09/22 02:53:50;;;;;;;3.50;2.30;;;;;;;11.67;100.00;99775.97;5073178;28;20028;-82
2023/09/22 02:56:16;;;;;;;2.25;2.00;;;;;;;11.73;100.00;99785.28;5071248;28;20078;-82
2023/09/22 02:58:41;;;;;;;4.23;2.80;;;;;;;11.74;100.00;99781.78;5072629;28;20029;-82
2023/09/22 03:01:09;;;;;;;3.57;2.40;;;;;;;11.72;100.00;99773.19;5072887;28;20094;-82
2023/09/22 03:03:35;;;;;;;3.15;2.28;;;;;;;11.75;100.00;99773.09;5073366;28;20028;-82
2023/09/22 03:06:00;;;;;;;2.93;2.10;;;;;;;11.73;100.00;99775.75;5072534;28;20029;-82
2023/09/22 03:08:26;;;;;;;2.20;2.00;;;;;;;11.73;100.00;99767.09;5072938;28;20105;-82
2023/09/22 03:10:51;;;;;;;1.97;1.77;;;;;;;11.74;100.00;99766.19;5072993;28;20025;-82
2023/09/22 03:13:16;;;;;;;2.20;2.00;;;;;;;11.78;100.00;99777.31;5071517;28;20028;-82
2023/09/22 03:15:42;;;;;;;1.40;1.30;;;;;;;11.81;100.00;99779.81;5072935;28;20017;-82
2023/09/22 03:18:08;;;;;;;1.63;1.53;;;;;;;11.72;100.00;99771.47;5073071;28;20074;-81
2023/09/22 03:20:33;;;;;;;2.72;2.00;;;;;;;11.76;100.00;99782.59;5072097;28;20473;-81
2023/09/22 03:22:59;;;;;;;2.43;2.00;;;;;;;11.77;100.00;99780.81;5066569;28;20045;-81
2023/09/22 03:25:24;;;;;;;3.07;2.10;;;;;;;11.80;100.00;99786.78;5052718;28;20528;-81
2023/09/22 03:27:50;;;;;;;3.37;2.20;;;;;;;11.71;100.00;99772.38;5052146;28;20432;-81
2023/09/22 03:30:15;;;;;;;2.30;1.90;;;;;;;11.77;100.00;99773.03;5052550;28;20037;-81
2023/09/22 03:32:41;;;;;;;2.67;1.90;;;;;;;11.79;100.00;99777.28;5052875;28;20060;-81
2023/09/22 03:35:07;;;;;;;3.37;2.40;;;;;;;11.76;100.00;99782.59;5051987;28;20040;-81
2023/09/22 03:37:33;;;;;;;;;;;;;;;11.77;100.00;99784.28;5053074;28;20021;-82
2023/09/22 03:40:14;;;;;;;4.82;2.60;;;;;;;11.76;100.00;99782.59;5052717;28;19913;-81
2023/09/22 03:42:43;;;;;;;3.00;2.10;;;;;;;11.80;100.00;99785.91;5051005;28;20477;-81
2023/09/22 03:45:10;;;;;;;2.20;1.85;;;;;;;11.76;100.00;99776.56;5032541;28;20029;-81
2023/09/22 03:47:36;;;;;;;2.00;1.77;;;;;;;11.79;100.00;99781.63;5031785;28;20467;-82
2023/09/22 03:50:03;;;;;;;2.10;1.60;;;;;;;11.82;100.00;99778.91;5032530;28;20033;-81
2023/09/22 03:52:28;;;;;;;4.25;2.80;;;;;;;11.80;100.00;99789.38;5032646;28;20025;-81
2023/09/22 03:54:53;;;;;;;3.37;2.60;;;;;;;11.81;100.00;99788.47;5031713;28;20367;-81
2023/09/22 03:57:19;;;;;;;2.70;2.37;;;;;;;11.77;100.00;99786.03;5032114;28;20041;-81
2023/09/22 03:59:44;;;;;;;2.90;2.20;;;;;;;11.79;100.00;99786.81;5032564;28;20021;-81
2023/09/22 04:02:09;;;;;;;2.50;2.10;;;;;;;11.81;100.00;99793.69;5031745;28;20112;-81
2023/09/22 04:04:35;;;;;;;2.70;2.30;;;;;;;11.82;100.00;99789.31;5032623;28;20462;-81
2023/09/22 04:07:00;;;;;;;2.43;2.17;;;;;;;11.81;100.00;99783.28;5032423;28;20053;-81
2023/09/22 04:09:25;;;;;;;4.67;2.60;;;;;;;11.80;100.00;99801.50;5031542;28;20033;-81
2023/09/22 04:11:52;;;;;;;3.60;2.50;;;;;;;11.79;100.00;99798.09;5032416;28;20086;-82
2023/09/22 04:14:17;;;;;;;3.72;2.50;;;;;;;11.79;100.00;99805.88;5032399;28;20032;-82
2023/09/22 04:16:43;;;;;;;3.27;2.40;;;;;;;11.81;100.00;99809.28;5031730;28;20025;-82
2023/09/22 04:19:09;;;;;;;2.47;2.23;;;;;;;11.81;100.00;99806.69;5032363;28;20069;-82
2023/09/22 04:21:42;;;;;;;2.17;1.98;;;;;;;11.79;100.00;99795.47;5032521;28;20029;-81
2023/09/22 04:24:09;;;;;;;3.05;2.30;;;;;;;11.83;100.00;99807.44;5046766;28;20053;-81
2023/09/22 04:26:42;;;;;;;3.95;2.78;;;;;;;11.73;100.00;99793.09;5052117;28;20025;-81
2023/09/22 04:29:08;;;;;;;2.95;2.33;;;;;;;11.82;100.00;99816.13;5052274;28;20075;-81
2023/09/22 04:31:34;;;;;;;5.93;2.88;;;;;;;11.82;100.00;99818.75;5051700;28;20031;-81
2023/09/22 04:33:59;;;;;;;3.10;2.33;;;;;;;11.80;100.00;99812.78;5052199;28;20478;-82
2023/09/22 04:36:25;;;;;;;2.50;1.90;;;;;;;11.83;100.00;99817.00;5066908;28;20118;-81
2023/09/22 04:38:50;;;;;;;2.27;1.70;;;;;;;11.83;100.00;99814.41;5072247;28;20070;-81
2023/09/22 04:41:19;;;;;;;2.07;1.87;;;;;;;11.80;100.00;99817.97;5071767;28;20024;-82
2023/09/22 04:43:44;;;;;;;2.13;1.80;;;;;;;11.80;100.00;99810.19;5071601;28;20032;-81
2023/09/22 04:46:09;;;;;;;2.00;1.80;;;;;;;11.78;100.00;99806.78;5071687;28;20024;-81
2023/09/22 04:48:35;;;;;;;2.07;1.80;;;;;;;11.78;100.00;99816.31;5071800;28;20025;-81
2023/09/22 04:51:00;;;;;;;2.50;1.70;;;;;;;11.75;100.00;99814.69;5071535;28;20092;-81
2023/09/22 04:53:25;;;;;;;1.77;1.67;;;;;;;11.73;100.00;99808.69;5071342;28;20512;-81
2023/09/22 04:56:03;;;;;;;1.90;1.80;;;;;;;11.69;100.00;99814.91;5072002;28;20521;-81
2023/09/22 04:58:29;;;;;;;2.53;1.90;;;;;;;11.66;100.00;99817.63;5073047;28;20059;-81
2023/09/22 05:00:55;;;;;;;2.73;2.00;;;;;;;11.61;100.00;99809.13;5075103;28;20028;-81
2023/09/22 05:03:21;;;;;;;3.42;1.95;;;;;;;11.57;100.00;99811.88;5075043;28;20013;-81
2023/09/22 05:05:49;;;;;;;2.67;1.93;;;;;;;11.57;100.00;99811.00;5074753;28;20099;-81
2023/09/22 05:08:14;;;;;;;2.03;1.80;;;;;;;11.57;100.00;99821.41;5074705;28;20032;-81
2023/09/22 05:10:40;;;;;;;2.33;2.00;;;;;;;11.53;100.00;99817.22;5075663;28;20020;-81
2023/09/22 05:13:06;;;;;;;2.97;2.00;;;;;;;11.53;100.00;99828.47;5074058;28;20392;-81
2023/09/22 05:15:33;;;;;;;3.00;2.22;;;;;;;11.51;100.00;99832.03;5075544;28;20025;-82
2023/09/22 05:17:58;;;;;;;1.90;1.80;;;;;;;11.47;100.00;99836.47;5074873;28;20032;-81
2023/09/22 05:20:24;;;;;;;2.70;2.10;;;;;;;11.48;100.00;99839.91;5073678;28;20071;-81
2023/09/22 05:22:49;;;;;;;2.53;2.00;;;;;;;11.47;100.00;99840.81;5069904;28;20033;-81
2023/09/22 05:25:15;;;;;;;2.20;2.00;;;;;;;11.42;100.00;99834.03;5054285;28;20021;-82
2023/09/22 05:27:42;;;;;;;2.85;2.22;;;;;;;11.44;100.00;99850.41;5054193;28;20025;-81
2023/09/22 05:30:08;;;;;;;2.20;1.90;;;;;;;11.40;100.00;99840.19;5054101;28;20091;-82
2023/09/22 05:32:34;;;;;;;3.10;2.35;;;;;;;11.40;100.00;99842.78;5054857;28;20063;-82
2023/09/22 05:34:59;;;;;;;2.97;2.00;;;;;;;11.41;100.00;99852.25;5054320;28;20060;-82
2023/09/22 05:37:25;;;;;;;2.37;2.00;;;;;;;11.41;100.00;99854.88;5054474;28;20025;-82
2023/09/22 05:39:51;;;;;;;1.87;1.77;;;;;;;11.40;100.00;99855.75;5053740;28;20032;-82
2023/09/22 05:42:16;;;;;;;2.00;1.88;;;;;;;11.39;100.00;99854.06;5054303;28;20029;-82
2023/09/22 05:44:43;;;;;;;1.97;1.77;;;;;;;11.38;100.00;99863.63;5054583;28;20027;-80
2023/09/22 05:47:09;;;;;;;2.97;1.90;;;;;;;11.38;100.00;99868.81;5053675;28;20021;-79
2023/09/22 05:49:34;;;;;;;1.83;1.43;;;;;;;11.37;100.00;99874.91;5050912;28;20033;-79
2023/09/22 05:52:03;;;;;;;2.50;1.80;;;;;;;11.38;100.00;99873.16;5051999;28;20104;-80
2023/09/22 05:54:44;;;;;;;2.00;1.80;;;;;;;11.37;100.00;99874.06;5038856;28;20017;-81
2023/09/22 05:57:24;;;;;;;2.20;1.88;;;;;;;11.31;100.00;99863.88;5034014;28;20037;-82
2023/09/22 06:00:15;;;;;;;1.60;1.50;;;;;;;11.33;100.00;99870.72;5034333;28;20411;-82
2023/09/22 06:02:41;;;;;;;2.90;1.90;;;;;;;11.27;100.00;99856.19;5034025;28;20049;-82
2023/09/22 06:05:09;;;;;;;2.00;1.40;;;;;;;11.40;100.00;99887.81;5034101;28;20071;-82
2023/09/22 06:07:35;;;;;;;1.60;1.50;;;;;;;11.35;100.00;99876.72;5034460;28;20104;-82
2023/09/22 06:10:05;;;;;;;1.70;1.60;;;;;;;11.44;100.00;99893.75;5033566;28;20028;-81
2023/09/22 06:12:30;;;;;;;1.70;1.60;;;;;;;11.44;100.00;99888.53;5042219;28;20112;-82
2023/09/22 06:14:56;;;;;;;1.50;1.40;;;;;;;11.46;100.00;99896.28;5043016;28;20112;-82
2023/09/22 06:17:21;;;;;;;1.33;1.27;;;;;;;11.48;100.00;99897.94;5048441;28;20033;-82
2023/09/22 06:19:46;;;;;;;1.47;1.37;;;;;;;11.47;100.00;99896.25;5053579;28;20037;-86
2023/09/22 06:22:12;;;;;;;1.40;1.30;;;;;;;11.50;100.00;99892.69;5053081;28;20028;-86
2023/09/22 06:24:37;;;;;;;1.70;1.60;;;;;;;11.52;100.00;99896.91;5054038;28;20053;-83
2023/09/22 06:27:02;;;;;;;4.83;2.27;;;;;;;11.51;100.00;99889.19;5053861;28;20025;-85
2023/09/22 06:29:28;;;;;;;3.07;2.10;;;;;;;11.54;100.00;99899.47;5052798;28;20025;-84
2023/09/22 06:31:53;;;;;;;2.07;1.87;;;;;;;11.49;100.00;99894.41;5053538;28;20029;-81
2023/09/22 06:34:19;;;;;;;2.07;1.90;;;;;;;11.63;100.00;99909.56;5053534;28;20021;-83
2023/09/22 06:36:46;;;;;;;3.00;2.10;;;;;;;11.76;100.00;99911.72;5052990;28;20033;-84
2023/09/22 06:39:12;;;;;;;4.32;2.08;;;;;;;12.36;100.00;99910.41;5053418;28;20028;-84
2023/09/22 06:41:37;;;;;;;2.10;1.90;;;;;;;13.36;100.00;99904.75;5053422;28;20504;-83
2023/09/22 06:44:03;;;;;;;2.20;2.00;;;;;;;14.97;100.00;99892.34;5052471;28;20125;-84
2023/09/22 06:46:29;;;;;;;3.25;1.80;;;;;;;17.15;100.00;99910.63;5034519;28;20033;-83
2023/09/22 06:48:56;;;;;;;2.27;1.90;;;;;;;19.07;100.00;99916.44;5033574;28;20429;-84
2023/09/22 06:51:21;;;;;;;2.35;1.65;;;;;;;20.58;91.32;99920.25;5032412;28;20026;-83
2023/09/22 06:53:47;;;;;;;1.63;1.20;;;;;;;21.79;82.65;99929.84;5033242;28;20033;-83
2023/09/22 06:56:13;;;;;;;3.53;1.80;;;;;;;22.35;71.41;99929.84;5089786;22;20061;-84
2023/09/22 06:58:40;;;;;;;3.07;1.53;;;;;;;22.36;74.80;99931.50;5072372;28;20381;-85
2023/09/22 07:01:14;;;;;;;2.47;1.70;;;;;;;21.82;67.09;99935.72;5072961;28;20028;-84
2023/09/22 07:03:41;;;;;;;1.45;1.30;;;;;;;21.00;75.20;99917.25;5073395;28;20032;-85
2023/09/22 07:06:09;;;;;;;1.35;1.25;;;;;;;19.95;73.99;99930.78;5072249;28;20031;-83
2023/09/22 07:08:35;;;;;;;1.52;1.40;;;;;;;18.87;77.68;99934.34;5072913;28;20025;-86
2023/09/22 07:11:08;;;;;;;2.55;1.63;;;;;;;17.80;79.54;99938.28;5073098;28;20020;-79
2023/09/22 07:13:34;;;;;;;2.83;2.03;;;;;;;17.01;84.03;99931.53;5072495;28;20033;-81
2023/09/22 07:15:59;;;;;;;1.73;1.55;;;;;;;16.46;85.85;99938.88;5073048;28;20501;-81
2023/09/22 07:18:25;;;;;;;2.93;2.00;;;;;;;15.81;88.37;99947.50;5071725;28;20060;-81
2023/09/22 07:20:52;;;;;;;2.95;1.50;;;;;;;15.44;90.41;99934.50;5072482;28;20017;-81
2023/09/22 07:23:18;;;;;;;2.00;1.55;;;;;;;15.12;93.15;99943.03;5072787;28;20089;-81
2023/09/22 07:25:43;;;;;;;2.25;1.60;;;;;;;14.77;93.89;99937.72;5072375;28;20028;-81
2023/09/22 07:28:08;;;;;;;5.63;1.90;;;;;;;14.47;94.97;99935.56;5072574;28;20441;-81
2023/09/22 07:30:37;;;;;;;1.93;1.70;;;;;;;14.32;96.23;99950.19;5073068;28;20031;-81
2023/09/22 07:33:02;;;;;;;1.70;1.60;;;;;;;14.16;96.77;99957.03;5071970;28;20025;-82
2023/09/22 07:35:27;;;;;;;1.97;1.67;;;;;;;14.06;98.19;99948.75;5072581;28;20028;-81
2023/09/22 07:37:53;;;;;;;2.00;1.73;;;;;;;14.00;99.93;99955.06;5072801;28;20020;-81
2023/09/22 07:40:18;;;;;;;3.77;1.80;;;;;;;13.90;98.52;99959.84;5071464;28;20488;-80
2023/09/22 07:42:44;;;;;;;3.53;1.77;;;;;;;13.83;99.49;99962.81;5070006;28;20039;-81
2023/09/22 07:45:15;;;;;;;2.22;1.27;;;;;;;13.79;100.00;99967.28;5072576;28;20020;-81
2023/09/22 07:47:44;;;;;;;1.58;1.48;;;;;;;13.84;100.00;99975.75;5072065;28;20047;-81
2023/09/22 07:50:18;;;;;;;1.95;1.50;;;;;;;13.77;100.00;99969.13;5072259;28;20431;-81
2023/09/22 07:52:43;;;;;;;3.28;1.60;;;;;;;13.87;100.00;99986.06;5072468;28;20484;-81
2023/09/22 07:55:09;;;;;;;1.67;1.53;;;;;;;13.87;100.00;99970.44;5070297;28;20057;-81
2023/09/22 07:57:35;;;;;;;2.10;1.60;;;;;;;13.95;100.00;99977.94;5073007;28;20078;-81
2023/09/22 08:00:01;;;;;;;2.28;1.38;;;;;;;14.06;100.00;99990.50;5072681;28;20025;-81
2023/09/22 08:02:26;;;;;;;1.40;1.30;;;;;;;14.09;100.00;100000.78;5071598;28;20029;-81
2023/09/22 08:04:52;;;;;;;1.33;1.23;;;;;;;14.11;99.99;99996.38;5072593;28;20101;-80
2023/09/22 08:07:17;;;;;;;1.80;1.40;;;;;;;14.09;99.71;99992.09;5070370;28;20067;-81
2023/09/22 08:09:42;;;;;;;2.10;1.30;;;;;;;14.11;100.00;99996.38;5072094;28;20025;-81
2023/09/22 08:12:08;;;;;;;1.47;1.10;;;;;;;14.13;99.18;99994.50;5071918;28;22388;-80
2023/09/22 08:14:35;;;;;;;1.80;1.40;;;;;;;14.05;98.31;99981.81;5069877;28;20033;-80
2023/09/22 08:17:05;;;;;;;1.23;1.13;;;;;;;14.15;96.77;99997.06;5072462;28;20032;-80
2023/09/22 08:19:31;;;;;;;2.25;1.20;;;;;;;14.18;96.61;100000.38;5072509;28;20426;-80
2023/09/22 08:21:57;;;;;;;1.13;1.13;;;;;;;14.20;98.67;99998.56;5071266;28;20095;-80
2023/09/22 08:24:25;;;;;;;1.70;1.30;;;;;;;14.33;98.59;100011.06;5071974;28;20056;-80
2023/09/22 08:26:51;;;;;;;0.95;0.90;;;;;;;14.41;98.04;100016.81;5072349;28;20074;-80
2023/09/22 08:29:16;;;;;;;1.07;0.97;;;;;;;14.51;98.32;100012.03;5071223;28;20016;-80
2023/09/22 08:31:42;;;;;;;1.30;1.10;;;;;;;14.59;96.17;100009.91;5072195;28;20546;-81
2023/09/22 08:34:07;;;;;;;2.13;1.13;;;;;;;14.59;95.43;100015.13;5074016;28;20032;-82
2023/09/22 08:36:33;;;;;;;2.37;1.27;;;;;;;14.61;97.62;100002.84;5074836;28;20107;-81
2023/09/22 08:38:58;;;;;;;2.87;1.37;;;;;;;14.76;96.11;100014.38;5075987;28;20032;-81
2023/09/22 08:41:26;;;;;;;2.87;1.40;;;;;;;14.75;93.20;100015.31;5075968;28;20444;-81
2023/09/22 08:43:54;;;;;;;1.80;1.17;;;;;;;14.79;93.63;100013.38;5075048;28;20020;-79
2023/09/22 08:46:19;;;;;;;0.95;0.95;;;;;;;14.80;94.83;100022.94;5075592;28;20021;-81
2023/09/22 08:48:44;;;;;;;2.70;1.13;;;;;;;14.73;91.88;100018.91;5075359;28;20031;-81
2023/09/22 08:51:10;;;;;;;1.10;1.00;;;;;;;14.86;94.21;100022.63;5074748;28;20020;-82
2023/09/22 08:53:36;;;;;;;1.53;0.80;;;;;;;15.06;95.73;100021.72;5075308;28;20060;-81
2023/09/22 08:56:04;;;;;;;2.08;1.20;;;;;;;15.32;95.08;100021.38;5067224;28;20174;-81
2023/09/22 08:58:29;;;;;;;1.33;1.05;;;;;;;15.53;93.31;100015.13;5062130;28;20021;-81
2023/09/22 09:00:55;;;;;;;1.47;0.90;;;;;;;15.75;94.34;100029.75;5062893;28;20025;-81
2023/09/22 09:03:27;;;;;;;1.40;1.00;;;;;;;15.79;90.26;100014.75;5061535;28;20083;-80
2023/09/22 09:06:05;;;;;;;2.35;1.20;;;;;;;15.69;89.01;100023.06;5046752;28;20055;-81
2023/09/22 09:08:30;;;;;;;1.67;1.08;;;;;;;15.57;88.95;100027.09;5066349;28;20143;-81
2023/09/22 09:10:57;;;;;;;1.73;1.10;;;;;;;15.55;91.11;100028.13;5068716;28;20147;-81
2023/09/22 09:13:27;;;;;;;1.83;0.95;;;;;;;15.46;87.79;100039.03;5075062;28;20066;-81
2023/09/22 09:15:54;;;;;;;1.55;0.95;;;;;;;15.31;89.17;100049.28;5074051;28;20110;-81
2023/09/22 09:18:24;;;;;;;1.23;1.05;;;;;;;15.33;86.28;100039.63;5054288;28;20112;-80
2023/09/22 09:21:10;;;;;;;1.00;0.90;;;;;;;15.41;88.84;100040.09;5055419;28;20021;-80
2023/09/22 09:23:36;;;;;;;1.65;1.20;;;;;;;15.42;88.32;100040.94;5055200;28;20029;-80
2023/09/22 09:26:01;;;;;;;1.23;0.97;;;;;;;15.52;89.47;100042.19;5054061;28;20082;-80
2023/09/22 09:28:28;;;;;;;2.83;1.00;;;;;;;15.65;89.31;100042.44;5054707;28;20025;-80
2023/09/22 09:30:57;;;;;;;;;;;;;;;15.88;91.23;100038.69;5055575;28;20025;-80
2023/09/22 09:33:25;;;;;;;2.40;1.15;;;;;;;16.10;86.25;100027.13;5054075;28;20012;-82
2023/09/22 09:35:51;;;;;;;1.27;1.05;;;;;;;16.34;84.22;100038.09;5054937;28;20075;-80
2023/09/22 09:38:40;;;;;;;1.13;1.02;;;;;;;16.58;84.63;100037.75;5044826;28;20098;-78
2023/09/22 09:41:06;;;;;;;1.05;0.93;;;;;;;16.78;86.41;100054.16;5053667;28;20104;-81
2023/09/22 09:43:33;;;;;;;0.70;0.63;;;;;;;16.89;85.57;100046.56;5054117;28;20032;-82
2023/09/22 09:45:59;;;;;;;2.85;1.00;;;;;;;16.98;79.96;100056.56;5053925;28;20366;-81
2023/09/22 09:48:26;;;;;;;1.50;0.70;;;;;;;16.91;84.24;100057.81;5054259;28;20029;-81
2023/09/22 09:50:57;;;;;;;0.60;0.60;;;;;;;16.89;78.69;100061.47;5054522;28;20085;-81
2023/09/22 09:53:44;;;;;;;1.83;0.82;;;;;;;16.83;82.04;100057.41;5053147;28;20458;-81
2023/09/22 09:56:14;;;;;;;1.67;1.10;;;;;;;16.94;81.73;100054.19;5054002;28;20473;-81
2023/09/22 09:58:41;;;;;;;1.10;0.90;;;;;;;17.13;80.58;100054.03;5054752;28;20488;-82
2023/09/22 10:01:08;;;;;;;0.93;0.82;;;;;;;17.32;80.89;100053.00;5054721;28;20358;-81
2023/09/22 10:03:39;;;;;;;2.55;1.00;;;;;;;17.53;79.48;100057.03;5055063;28;20032;-81
2023/09/22 10:06:10;;;;;;;1.55;1.00;;;;;;;17.64;75.89;100060.81;5074032;28;20021;-81
2023/09/22 10:08:39;;;;;;;1.20;1.10;;;;;;;17.67;76.66;100053.66;5073871;28;20027;-82
2023/09/22 10:11:07;;;;;;;2.83;1.20;;;;;;;17.66;76.57;100054.56;5073850;28;20028;-81
2023/09/22 10:13:36;;;;;;;2.13;0.90;;;;;;;17.64;77.67;100045.94;5073924;28;20055;-81
2023/09/22 10:16:04;;;;;;;1.63;1.10;;;;;;;17.73;75.30;100041.94;5073287;28;20028;-81
2023/09/22 10:18:45;;;;;;;1.17;0.80;;;;;;;17.88;75.31;100045.44;5073931;28;20106;-82
2023/09/22 10:21:38;;;;;;;1.10;1.00;;;;;;;17.97;76.79;100044.06;5073072;28;20101;-80
2023/09/22 10:24:23;;;;;;;1.50;0.82;;;;;;;18.03;73.67;100044.56;5073722;28;20031;-80
2023/09/22 10:26:55;;;;;;;1.13;0.85;;;;;;;18.17;75.25;100041.13;5073828;28;20047;-81
2023/09/22 10:29:43;;;;;;;2.05;1.00;;;;;;;18.28;73.89;100035.22;5072461;28;20036;-81
2023/09/22 10:32:18;;;;;;;1.80;1.20;;;;;;;18.13;72.05;100039.63;5069072;28;20016;-82
2023/09/22 10:34:50;;;;;;;0.73;0.70;;;;;;;17.97;69.84;100039.69;5072057;28;20099;-81
2023/09/22 10:37:17;;;;;;;1.50;1.00;;;;;;;18.03;72.36;100049.81;5072581;28;20032;-80
2023/09/22 10:39:54;;;;;;;1.60;0.80;;;;;;;18.21;71.39;100039.16;5073600;28;20025;-81
2023/09/22 10:42:20;;;;;;;;;;;;;;;18.35;69.46;100039.16;5072941;28;20116;-81
2023/09/22 10:45:03;;;;;;;1.05;0.90;;;;;;;18.60;71.54;100039.44;5071843;28;20395;-81
2023/09/22 10:47:47;;;;;;;0.47;0.40;;;;;;;18.85;74.03;100043.19;5073306;28;20029;-81
2023/09/22 10:50:19;;;;;;;0.57;0.57;;;;;;;19.06;72.13;100044.47;5072791;28;20070;-81
2023/09/22 10:52:53;;;;;;;1.27;0.95;;;;;;;19.21;71.19;100045.28;5073390;28;20111;-81
2023/09/22 10:55:24;;;;;;;0.52;0.52;;;;;;;19.34;71.23;100028.69;5058630;28;20045;-80
2023/09/22 10:57:50;;;;;;;0.80;0.80;;;;;;;19.45;71.23;100037.56;5068536;28;20477;-77
2023/09/22 11:00:18;;;;;;;1.08;0.70;;;;;;;19.59;70.42;100035.81;5063210;28;20033;-81
2023/09/22 11:02:44;;;;;;;0.75;0.75;;;;;;;19.56;67.80;100041.28;5062125;28;20509;-80
2023/09/22 11:05:13;;;;;;;0.82;0.82;;;;;;;19.57;72.41;100045.59;5061516;28;20027;-79
2023/09/22 11:07:38;;;;;;;1.30;0.52;;;;;;;19.36;71.05;100048.69;5053348;28;20124;-78
2023/09/22 11:10:04;;;;;;;0.80;0.80;;;;;;;18.98;67.27;100037.06;5052759;28;20108;-78
2023/09/22 11:12:33;;;;;;;1.20;0.70;;;;;;;18.70;68.82;100048.44;5052323;28;20025;-80
2023/09/22 11:15:01;;;;;;;1.48;0.88;;;;;;;18.51;69.99;100052.22;5056711;28;20428;-80
2023/09/22 11:17:48;;;;;;;0.65;0.65;;;;;;;18.29;71.12;100052.66;5063790;28;20029;-79
2023/09/22 11:20:26;;;;;;;1.20;0.85;;;;;;;18.13;70.00;100054.50;5071963;28;20111;-79
2023/09/22 11:22:52;;;;;;;2.03;0.93;;;;;;;17.94;70.96;100052.94;5056667;28;20488;-80
2023/09/22 11:25:18;;;;;;;;;;;;;;;17.82;73.47;100058.91;5052184;28;20025;-79
2023/09/22 11:27:47;;;;;;;0.68;0.68;;;;;;;17.69;73.04;100056.16;5052985;28;19966;-80